sensor_id;sensor_type;location;lat;lon;timestamp;temperature;humidity
54832;DHT22;40730;53.068;6.572;2023-03-01T00:01:14;-2.20;99.90
54832;DHT22;40730;53.068;6.572;2023-03-01T00:03:41;-2.20;99.90
54832;DHT22;40730;53.068;6.572;2023-03-01T00:06:07;-2.30;99.90
54832;DHT22;40730;53.068;6.572;2023-03-01T00:08:34;-2.20;99.90
54832;DHT22;40730;53.068;6.572;2023-03-01T00:11:29;-2.30;99.90
54832;DHT22;40730;53.068;6.572;2023-03-01T00:13:56;-2.20;99.90
54832;DHT22;40730;53.068;6.572;2023-03-01T00:16:36;-2.30;99.90
54832;DHT22;40730;53.068;6.572;2023-03-01T00:19:04;-2.20;99.90
54832;DHT22;40730;53.068;6.572;2023-03-01T00:21:30;-2.10;99.90
54832;DHT22;40730;53.068;6.572;2023-03-01T00:23:56;-2.90;99.90
54832;DHT22;40730;53.068;6.572;2023-03-01T00:26:23;-2.10;99.90
54832;DHT22;40730;53.068;6.572;2023-03-01T00:28:51;-2.00;99.90
54832;DHT22;40730;53.068;6.572;2023-03-01T00:31:22;-2.10;99.90
54832;DHT22;40730;53.068;6.572;2023-03-01T00:33:48;-2.00;99.90
54832;DHT22;40730;53.068;6.572;2023-03-01T00:36:15;-1.90;99.90
54832;DHT22;40730;53.068;6.572;2023-03-01T00:38:43;-1.80;99.90
54832;DHT22;40730;53.068;6.572;2023-03-01T00:41:13;-1.90;99.90
54832;DHT22;40730;53.068;6.572;2023-03-01T00:43:39;-1.90;99.90
54832;DHT22;40730;53.068;6.572;2023-03-01T00:46:07;-1.80;99.90
54832;DHT22;40730;53.068;6.572;2023-03-01T00:48:34;-2.10;99.90
54832;DHT22;40730;53.068;6.572;2023-03-01T00:51:08;-1.80;99.90
54832;DHT22;40730;53.068;6.572;2023-03-01T00:53:35;-1.80;99.90
54832;DHT22;40730;53.068;6.572;2023-03-01T00:56:01;-1.80;99.90
54832;DHT22;40730;53.068;6.572;2023-03-01T00:58:27;-1.80;99.90
54832;DHT22;40730;53.068;6.572;2023-03-01T01:00:52;-1.80;99.90
54832;DHT22;40730;53.068;6.572;2023-03-01T01:03:18;-1.80;99.90
54832;DHT22;40730;53.068;6.572;2023-03-01T01:05:44;-1.80;99.90
54832;DHT22;40730;53.068;6.572;2023-03-01T01:08:10;-1.80;99.90
54832;DHT22;40730;53.068;6.572;2023-03-01T01:10:36;-1.80;99.90
54832;DHT22;40730;53.068;6.572;2023-03-01T01:13:02;-1.80;99.90
54832;DHT22;40730;53.068;6.572;2023-03-01T01:15:28;-1.80;99.90
54832;DHT22;40730;53.068;6.572;2023-03-01T01:17:53;-1.80;99.90
54832;DHT22;40730;53.068;6.572;2023-03-01T01:20:20;-2.10;99.90
54832;DHT22;40730;53.068;6.572;2023-03-01T01:22:45;-1.90;99.90
54832;DHT22;40730;53.068;6.572;2023-03-01T01:25:11;-1.90;99.90
54832;DHT22;40730;53.068;6.572;2023-03-01T01:27:37;-2.00;99.90
54832;DHT22;40730;53.068;6.572;2023-03-01T01:30:03;-2.20;99.90
54832;DHT22;40730;53.068;6.572;2023-03-01T01:32:29;-2.30;99.90
54832;DHT22;40730;53.068;6.572;2023-03-01T01:34:55;-2.50;99.90
54832;DHT22;40730;53.068;6.572;2023-03-01T01:37:20;-2.60;99.90
54832;DHT22;40730;53.068;6.572;2023-03-01T01:39:46;-2.60;99.90
54832;DHT22;40730;53.068;6.572;2023-03-01T01:42:16;-2.70;99.90
54832;DHT22;40730;53.068;6.572;2023-03-01T01:44:45;-2.70;99.90
54832;DHT22;40730;53.068;6.572;2023-03-01T01:47:20;-2.70;99.90
54832;DHT22;40730;53.068;6.572;2023-03-01T01:49:50;-2.80;99.90
54832;DHT22;40730;53.068;6.572;2023-03-01T01:52:20;-2.80;99.90
54832;DHT22;40730;53.068;6.572;2023-03-01T01:54:54;-2.70;99.90
54832;DHT22;40730;53.068;6.572;2023-03-01T01:57:33;-2.90;99.90
54832;DHT22;40730;53.068;6.572;2023-03-01T02:00:05;-2.90;99.90
54832;DHT22;40730;53.068;6.572;2023-03-01T02:02:31;-2.80;99.90
54832;DHT22;40730;53.068;6.572;2023-03-01T02:07:58;-2.80;99.90
54832;DHT22;40730;53.068;6.572;2023-03-01T02:10:24;-2.80;99.90
54832;DHT22;40730;53.068;6.572;2023-03-01T02:12:51;-2.90;99.90
54832;DHT22;40730;53.068;6.572;2023-03-01T02:15:17;-2.90;99.90
54832;DHT22;40730;53.068;6.572;2023-03-01T02:17:43;-2.90;99.90
54832;DHT22;40730;53.068;6.572;2023-03-01T02:20:22;-2.90;99.90
54832;DHT22;40730;53.068;6.572;2023-03-01T02:22:52;-2.90;99.90
54832;DHT22;40730;53.068;6.572;2023-03-01T02:30:45;-3.00;99.90
54832;DHT22;40730;53.068;6.572;2023-03-01T02:33:31;-3.00;99.90
54832;DHT22;40730;53.068;6.572;2023-03-01T02:36:00;-3.00;99.90
54832;DHT22;40730;53.068;6.572;2023-03-01T02:38:28;-3.10;99.90
54832;DHT22;40730;53.068;6.572;2023-03-01T02:40:54;-3.10;99.90
54832;DHT22;40730;53.068;6.572;2023-03-01T02:43:26;-3.20;99.90
54832;DHT22;40730;53.068;6.572;2023-03-01T02:45:56;-3.20;99.90
54832;DHT22;40730;53.068;6.572;2023-03-01T02:48:22;-3.20;99.90
54832;DHT22;40730;53.068;6.572;2023-03-01T02:53:39;-3.20;99.90
54832;DHT22;40730;53.068;6.572;2023-03-01T02:56:07;-3.20;99.90
54832;DHT22;40730;53.068;6.572;2023-03-01T02:58:39;-3.20;99.90
54832;DHT22;40730;53.068;6.572;2023-03-01T03:01:12;-3.20;99.90
54832;DHT22;40730;53.068;6.572;2023-03-01T03:03:40;-3.30;99.90
54832;DHT22;40730;53.068;6.572;2023-03-01T03:06:06;-3.30;99.90
54832;DHT22;40730;53.068;6.572;2023-03-01T03:08:32;-3.40;99.90
54832;DHT22;40730;53.068;6.572;2023-03-01T03:10:58;-3.30;99.90
54832;DHT22;40730;53.068;6.572;2023-03-01T03:13:23;-3.40;99.90
54832;DHT22;40730;53.068;6.572;2023-03-01T03:15:54;-3.40;99.90
54832;DHT22;40730;53.068;6.572;2023-03-01T03:18:21;-3.50;99.90
54832;DHT22;40730;53.068;6.572;2023-03-01T03:20:47;-3.50;99.90
54832;DHT22;40730;53.068;6.572;2023-03-01T03:23:13;-3.60;99.90
54832;DHT22;40730;53.068;6.572;2023-03-01T03:25:39;-3.60;99.90
54832;DHT22;40730;53.068;6.572;2023-03-01T03:28:06;-3.70;99.90
54832;DHT22;40730;53.068;6.572;2023-03-01T03:30:38;-3.70;99.90
54832;DHT22;40730;53.068;6.572;2023-03-01T03:33:07;-3.70;99.90
54832;DHT22;40730;53.068;6.572;2023-03-01T03:35:45;-3.70;99.90
54832;DHT22;40730;53.068;6.572;2023-03-01T03:38:13;-3.80;99.90
54832;DHT22;40730;53.068;6.572;2023-03-01T03:40:48;-3.80;99.90
54832;DHT22;40730;53.068;6.572;2023-03-01T03:43:21;-3.80;99.90
54832;DHT22;40730;53.068;6.572;2023-03-01T03:45:48;-3.80;99.90
54832;DHT22;40730;53.068;6.572;2023-03-01T03:48:15;-3.80;99.90
54832;DHT22;40730;53.068;6.572;2023-03-01T03:50:41;-3.80;99.90
54832;DHT22;40730;53.068;6.572;2023-03-01T03:53:11;-3.80;99.90
54832;DHT22;40730;53.068;6.572;2023-03-01T03:55:37;-3.90;99.90
54832;DHT22;40730;53.068;6.572;2023-03-01T03:58:05;-3.90;99.90
54832;DHT22;40730;53.068;6.572;2023-03-01T04:00:42;-3.90;99.90
54832;DHT22;40730;53.068;6.572;2023-03-01T04:03:09;-3.90;99.90
54832;DHT22;40730;53.068;6.572;2023-03-01T04:05:36;-3.90;99.90
54832;DHT22;40730;53.068;6.572;2023-03-01T04:08:02;-3.90;99.90
54832;DHT22;40730;53.068;6.572;2023-03-01T04:10:40;-3.90;99.90
54832;DHT22;40730;53.068;6.572;2023-03-01T04:13:08;-3.90;99.90
54832;DHT22;40730;53.068;6.572;2023-03-01T04:15:35;-3.90;99.90
54832;DHT22;40730;53.068;6.572;2023-03-01T04:18:01;-4.00;99.90
54832;DHT22;40730;53.068;6.572;2023-03-01T04:20:29;-3.90;99.90
54832;DHT22;40730;53.068;6.572;2023-03-01T04:23:01;-3.80;99.90
54832;DHT22;40730;53.068;6.572;2023-03-01T04:25:38;-3.80;99.90
54832;DHT22;40730;53.068;6.572;2023-03-01T04:28:05;-3.70;99.90
54832;DHT22;40730;53.068;6.572;2023-03-01T04:30:31;-3.70;99.90
54832;DHT22;40730;53.068;6.572;2023-03-01T04:33:05;-3.70;99.90
54832;DHT22;40730;53.068;6.572;2023-03-01T04:35:31;-3.80;99.90
54832;DHT22;40730;53.068;6.572;2023-03-01T04:37:57;-3.90;99.90
54832;DHT22;40730;53.068;6.572;2023-03-01T04:40:22;-3.90;99.90
54832;DHT22;40730;53.068;6.572;2023-03-01T04:42:48;-4.00;99.90
54832;DHT22;40730;53.068;6.572;2023-03-01T04:45:13;-4.00;99.90
54832;DHT22;40730;53.068;6.572;2023-03-01T04:47:40;-4.00;99.90
54832;DHT22;40730;53.068;6.572;2023-03-01T04:50:08;-4.10;99.90
54832;DHT22;40730;53.068;6.572;2023-03-01T04:52:35;-4.10;99.90
54832;DHT22;40730;53.068;6.572;2023-03-01T04:55:01;-4.10;99.90
54832;DHT22;40730;53.068;6.572;2023-03-01T04:57:27;-4.10;99.90
54832;DHT22;40730;53.068;6.572;2023-03-01T04:59:52;-4.10;99.90
54832;DHT22;40730;53.068;6.572;2023-03-01T05:02:18;-4.00;99.90
54832;DHT22;40730;53.068;6.572;2023-03-01T05:04:44;-4.00;99.90
54832;DHT22;40730;53.068;6.572;2023-03-01T05:07:09;-4.00;99.90
54832;DHT22;40730;53.068;6.572;2023-03-01T05:09:35;-4.00;99.90
54832;DHT22;40730;53.068;6.572;2023-03-01T05:12:00;-3.90;99.90
54832;DHT22;40730;53.068;6.572;2023-03-01T05:14:26;-3.90;99.90
54832;DHT22;40730;53.068;6.572;2023-03-01T05:16:51;-4.00;99.90
54832;DHT22;40730;53.068;6.572;2023-03-01T05:19:17;-4.10;99.90
54832;DHT22;40730;53.068;6.572;2023-03-01T05:21:48;-4.20;99.90
54832;DHT22;40730;53.068;6.572;2023-03-01T05:24:30;-4.20;99.90
54832;DHT22;40730;53.068;6.572;2023-03-01T05:26:56;-4.30;99.90
54832;DHT22;40730;53.068;6.572;2023-03-01T05:29:23;-4.30;99.90
54832;DHT22;40730;53.068;6.572;2023-03-01T05:32:02;-4.30;99.90
54832;DHT22;40730;53.068;6.572;2023-03-01T05:34:34;-4.30;99.90
54832;DHT22;40730;53.068;6.572;2023-03-01T05:37:00;-4.30;99.90
54832;DHT22;40730;53.068;6.572;2023-03-01T05:39:28;-4.30;99.90
54832;DHT22;40730;53.068;6.572;2023-03-01T05:41:55;-4.30;99.90
54832;DHT22;40730;53.068;6.572;2023-03-01T05:44:21;-4.30;99.90
54832;DHT22;40730;53.068;6.572;2023-03-01T05:46:47;-4.40;99.90
54832;DHT22;40730;53.068;6.572;2023-03-01T05:49:15;-4.30;99.90
54832;DHT22;40730;53.068;6.572;2023-03-01T05:51:41;-4.40;99.90
54832;DHT22;40730;53.068;6.572;2023-03-01T05:54:08;-4.40;99.90
54832;DHT22;40730;53.068;6.572;2023-03-01T05:56:35;-4.40;99.90
54832;DHT22;40730;53.068;6.572;2023-03-01T05:59:01;-4.40;99.90
54832;DHT22;40730;53.068;6.572;2023-03-01T06:01:27;-4.40;99.90
54832;DHT22;40730;53.068;6.572;2023-03-01T06:03:53;-4.40;99.90
54832;DHT22;40730;53.068;6.572;2023-03-01T06:06:18;-4.40;99.90
54832;DHT22;40730;53.068;6.572;2023-03-01T06:08:44;-4.30;99.90
54832;DHT22;40730;53.068;6.572;2023-03-01T06:11:10;-4.30;99.90
54832;DHT22;40730;53.068;6.572;2023-03-01T06:13:35;-4.30;99.90
54832;DHT22;40730;53.068;6.572;2023-03-01T06:16:04;-4.30;99.90
54832;DHT22;40730;53.068;6.572;2023-03-01T06:18:30;-4.20;99.90
54832;DHT22;40730;53.068;6.572;2023-03-01T06:20:56;-4.20;99.90
54832;DHT22;40730;53.068;6.572;2023-03-01T06:23:22;-4.20;99.90
54832;DHT22;40730;53.068;6.572;2023-03-01T06:25:48;-4.20;99.90
54832;DHT22;40730;53.068;6.572;2023-03-01T06:28:14;-4.10;99.90
54832;DHT22;40730;53.068;6.572;2023-03-01T06:30:39;-4.10;99.90
54832;DHT22;40730;53.068;6.572;2023-03-01T06:33:05;-4.10;99.90
54832;DHT22;40730;53.068;6.572;2023-03-01T06:35:31;-4.10;99.90
54832;DHT22;40730;53.068;6.572;2023-03-01T06:37:59;-4.00;99.90
54832;DHT22;40730;53.068;6.572;2023-03-01T06:40:25;-4.00;99.90
54832;DHT22;40730;53.068;6.572;2023-03-01T06:42:51;-4.00;99.90
54832;DHT22;40730;53.068;6.572;2023-03-01T06:45:18;-4.00;99.90
54832;DHT22;40730;53.068;6.572;2023-03-01T06:47:44;-4.00;99.90
54832;DHT22;40730;53.068;6.572;2023-03-01T06:50:10;-4.00;99.90
54832;DHT22;40730;53.068;6.572;2023-03-01T06:52:36;-3.90;99.90
54832;DHT22;40730;53.068;6.572;2023-03-01T06:55:03;-3.90;99.90
54832;DHT22;40730;53.068;6.572;2023-03-01T06:57:29;-3.80;99.90
54832;DHT22;40730;53.068;6.572;2023-03-01T06:59:54;-3.80;99.90
54832;DHT22;40730;53.068;6.572;2023-03-01T07:02:20;-3.70;99.90
54832;DHT22;40730;53.068;6.572;2023-03-01T07:04:46;-3.60;99.90
54832;DHT22;40730;53.068;6.572;2023-03-01T07:07:11;-3.60;99.90
54832;DHT22;40730;53.068;6.572;2023-03-01T07:09:37;-3.50;99.90
54832;DHT22;40730;53.068;6.572;2023-03-01T07:12:03;-3.50;99.90
54832;DHT22;40730;53.068;6.572;2023-03-01T07:14:29;-3.40;99.90
54832;DHT22;40730;53.068;6.572;2023-03-01T07:16:54;-3.30;99.90
54832;DHT22;40730;53.068;6.572;2023-03-01T07:19:21;-3.20;99.90
54832;DHT22;40730;53.068;6.572;2023-03-01T07:21:46;-3.10;99.90
54832;DHT22;40730;53.068;6.572;2023-03-01T07:24:12;-2.90;99.90
54832;DHT22;40730;53.068;6.572;2023-03-01T07:26:38;-2.80;99.90
54832;DHT22;40730;53.068;6.572;2023-03-01T07:29:05;-2.70;99.90
54832;DHT22;40730;53.068;6.572;2023-03-01T07:31:31;-2.60;99.90
54832;DHT22;40730;53.068;6.572;2023-03-01T07:33:57;-2.40;99.90
54832;DHT22;40730;53.068;6.572;2023-03-01T07:36:23;-2.30;99.90
54832;DHT22;40730;53.068;6.572;2023-03-01T07:38:49;-2.10;99.90
54832;DHT22;40730;53.068;6.572;2023-03-01T07:41:14;-2.00;99.90
54832;DHT22;40730;53.068;6.572;2023-03-01T07:43:40;-1.80;99.90
54832;DHT22;40730;53.068;6.572;2023-03-01T07:46:06;-1.60;99.90
54832;DHT22;40730;53.068;6.572;2023-03-01T07:48:33;-1.30;99.90
54832;DHT22;40730;53.068;6.572;2023-03-01T07:51:03;-1.40;99.90
54832;DHT22;40730;53.068;6.572;2023-03-01T07:53:30;-1.10;99.90
54832;DHT22;40730;53.068;6.572;2023-03-01T07:56:13;-1.00;99.90
54832;DHT22;40730;53.068;6.572;2023-03-01T07:58:41;-0.70;99.90
54832;DHT22;40730;53.068;6.572;2023-03-01T08:01:10;-0.40;99.90
54832;DHT22;40730;53.068;6.572;2023-03-01T08:03:36;-0.10;99.90
54832;DHT22;40730;53.068;6.572;2023-03-01T08:06:04;0.10;99.90
54832;DHT22;40730;53.068;6.572;2023-03-01T08:08:30;0.30;99.90
54832;DHT22;40730;53.068;6.572;2023-03-01T08:10:57;0.50;99.90
54832;DHT22;40730;53.068;6.572;2023-03-01T08:13:22;0.70;99.90
54832;DHT22;40730;53.068;6.572;2023-03-01T08:15:51;0.90;99.90
54832;DHT22;40730;53.068;6.572;2023-03-01T08:18:18;1.10;99.90
54832;DHT22;40730;53.068;6.572;2023-03-01T08:20:45;1.30;99.90
54832;DHT22;40730;53.068;6.572;2023-03-01T08:23:11;1.60;99.90
54832;DHT22;40730;53.068;6.572;2023-03-01T08:25:37;1.80;99.90
54832;DHT22;40730;53.068;6.572;2023-03-01T08:28:02;2.20;99.90
54832;DHT22;40730;53.068;6.572;2023-03-01T08:30:29;2.70;99.90
54832;DHT22;40730;53.068;6.572;2023-03-01T08:32:54;3.10;99.90
54832;DHT22;40730;53.068;6.572;2023-03-01T08:35:22;3.50;99.90
54832;DHT22;40730;53.068;6.572;2023-03-01T08:37:47;4.00;99.90
54832;DHT22;40730;53.068;6.572;2023-03-01T08:40:13;4.60;99.90
54832;DHT22;40730;53.068;6.572;2023-03-01T08:42:40;5.10;99.90
54832;DHT22;40730;53.068;6.572;2023-03-01T08:45:07;5.50;99.90
54832;DHT22;40730;53.068;6.572;2023-03-01T08:47:33;5.80;99.90
54832;DHT22;40730;53.068;6.572;2023-03-01T08:49:59;6.10;99.90
54832;DHT22;40730;53.068;6.572;2023-03-01T08:52:26;6.50;99.90
54832;DHT22;40730;53.068;6.572;2023-03-01T08:54:52;6.90;99.90
54832;DHT22;40730;53.068;6.572;2023-03-01T08:57:18;7.00;99.90
54832;DHT22;40730;53.068;6.572;2023-03-01T08:59:43;7.30;99.90
54832;DHT22;40730;53.068;6.572;2023-03-01T09:02:15;7.50;99.90
54832;DHT22;40730;53.068;6.572;2023-03-01T09:04:41;7.60;99.90
54832;DHT22;40730;53.068;6.572;2023-03-01T09:07:07;7.80;99.90
54832;DHT22;40730;53.068;6.572;2023-03-01T09:09:32;8.20;99.90
54832;DHT22;40730;53.068;6.572;2023-03-01T09:11:58;8.40;99.90
54832;DHT22;40730;53.068;6.572;2023-03-01T09:14:23;8.60;99.90
54832;DHT22;40730;53.068;6.572;2023-03-01T09:16:49;8.80;99.90
54832;DHT22;40730;53.068;6.572;2023-03-01T09:19:15;8.90;99.90
54832;DHT22;40730;53.068;6.572;2023-03-01T09:21:41;9.10;99.90
54832;DHT22;40730;53.068;6.572;2023-03-01T09:24:14;9.40;99.90
54832;DHT22;40730;53.068;6.572;2023-03-01T09:26:39;9.60;99.90
54832;DHT22;40730;53.068;6.572;2023-03-01T09:29:05;9.70;99.90
54832;DHT22;40730;53.068;6.572;2023-03-01T09:31:31;9.80;99.90
54832;DHT22;40730;53.068;6.572;2023-03-01T09:33:56;9.80;99.90
54832;DHT22;40730;53.068;6.572;2023-03-01T09:36:24;10.00;99.90
54832;DHT22;40730;53.068;6.572;2023-03-01T09:38:51;10.30;99.90
54832;DHT22;40730;53.068;6.572;2023-03-01T09:41:25;10.30;99.90
54832;DHT22;40730;53.068;6.572;2023-03-01T09:44:00;10.20;99.90
54832;DHT22;40730;53.068;6.572;2023-03-01T09:46:35;9.70;99.90
54832;DHT22;40730;53.068;6.572;2023-03-01T09:49:05;8.90;99.90
54832;DHT22;40730;53.068;6.572;2023-03-01T09:51:34;8.20;99.90
54832;DHT22;40730;53.068;6.572;2023-03-01T09:54:04;7.60;99.90
54832;DHT22;40730;53.068;6.572;2023-03-01T09:56:44;7.10;99.90
54832;DHT22;40730;53.068;6.572;2023-03-01T10:02:11;6.40;99.90
54832;DHT22;40730;53.068;6.572;2023-03-01T10:04:47;6.30;99.90
54832;DHT22;40730;53.068;6.572;2023-03-01T10:09:41;6.10;99.90
54832;DHT22;40730;53.068;6.572;2023-03-01T10:12:19;6.10;99.90
54832;DHT22;40730;53.068;6.572;2023-03-01T10:23:13;6.00;99.90
54832;DHT22;40730;53.068;6.572;2023-03-01T10:26:02;6.10;99.90
54832;DHT22;40730;53.068;6.572;2023-03-01T10:29:21;6.10;99.90
54832;DHT22;40730;53.068;6.572;2023-03-01T10:31:25;6.20;99.90
54832;DHT22;40730;53.068;6.572;2023-03-01T10:33:55;6.30;99.90
54832;DHT22;40730;53.068;6.572;2023-03-01T10:36:23;7.10;99.90
54832;DHT22;40730;53.068;6.572;2023-03-01T10:38:55;8.40;99.90
54832;DHT22;40730;53.068;6.572;2023-03-01T10:41:23;9.50;99.90
54832;DHT22;40730;53.068;6.572;2023-03-01T10:44:09;10.20;98.10
54832;DHT22;40730;53.068;6.572;2023-03-01T10:46:37;10.90;95.80
54832;DHT22;40730;53.068;6.572;2023-03-01T10:49:22;11.40;87.60
54832;DHT22;40730;53.068;6.572;2023-03-01T10:51:51;11.70;82.40
54832;DHT22;40730;53.068;6.572;2023-03-01T10:54:27;11.90;82.20
54832;DHT22;40730;53.068;6.572;2023-03-01T10:56:58;12.40;77.00
54832;DHT22;40730;53.068;6.572;2023-03-01T10:59:32;12.60;71.10
54832;DHT22;40730;53.068;6.572;2023-03-01T11:04:28;13.50;66.20
54832;DHT22;40730;53.068;6.572;2023-03-01T11:07:00;13.70;62.50
54832;DHT22;40730;53.068;6.572;2023-03-01T11:09:31;13.60;59.60
54832;DHT22;40730;53.068;6.572;2023-03-01T11:12:02;13.40;60.70
54832;DHT22;40730;53.068;6.572;2023-03-01T11:14:38;13.00;60.30
54832;DHT22;40730;53.068;6.572;2023-03-01T11:17:24;13.30;61.70
54832;DHT22;40730;53.068;6.572;2023-03-01T11:22:35;13.90;58.80
54832;DHT22;40730;53.068;6.572;2023-03-01T11:25:02;13.80;61.20
54832;DHT22;40730;53.068;6.572;2023-03-01T11:27:39;13.90;60.10
54832;DHT22;40730;53.068;6.572;2023-03-01T11:30:38;13.90;61.50
54832;DHT22;40730;53.068;6.572;2023-03-01T11:35:37;14.40;62.10
54832;DHT22;40730;53.068;6.572;2023-03-01T11:43:20;15.70;57.80
54832;DHT22;40730;53.068;6.572;2023-03-01T11:48:52;14.90;56.30
54832;DHT22;40730;53.068;6.572;2023-03-01T11:56:57;13.60;58.00
54832;DHT22;40730;53.068;6.572;2023-03-01T12:08:42;14.80;54.70
54832;DHT22;40730;53.068;6.572;2023-03-01T12:11:21;14.40;53.70
54832;DHT22;40730;53.068;6.572;2023-03-01T12:29:59;15.10;55.00
54832;DHT22;40730;53.068;6.572;2023-03-01T12:32:55;15.40;54.80
54832;DHT22;40730;53.068;6.572;2023-03-01T12:38:37;15.80;53.20
54832;DHT22;40730;53.068;6.572;2023-03-01T12:41:23;15.90;51.50
54832;DHT22;40730;53.068;6.572;2023-03-01T12:49:38;15.70;53.20
54832;DHT22;40730;53.068;6.572;2023-03-01T12:52:16;15.90;52.50
54832;DHT22;40730;53.068;6.572;2023-03-01T12:54:46;15.90;51.60
54832;DHT22;40730;53.068;6.572;2023-03-01T12:57:34;16.00;52.90
54832;DHT22;40730;53.068;6.572;2023-03-01T13:11:20;14.80;51.90
54832;DHT22;40730;53.068;6.572;2023-03-01T13:13:46;14.80;52.90
54832;DHT22;40730;53.068;6.572;2023-03-01T13:19:15;15.20;53.50
54832;DHT22;40730;53.068;6.572;2023-03-01T13:21:41;15.40;52.00
54832;DHT22;40730;53.068;6.572;2023-03-01T13:24:29;15.30;52.10
54832;DHT22;40730;53.068;6.572;2023-03-01T13:29:55;15.40;53.90
54832;DHT22;40730;53.068;6.572;2023-03-01T13:32:26;15.50;54.90
54832;DHT22;40730;53.068;6.572;2023-03-01T13:35:02;15.80;54.00
54832;DHT22;40730;53.068;6.572;2023-03-01T13:37:33;16.10;53.80
54832;DHT22;40730;53.068;6.572;2023-03-01T13:40:03;16.30;53.90
54832;DHT22;40730;53.068;6.572;2023-03-01T13:47:45;16.60;52.40
54832;DHT22;40730;53.068;6.572;2023-03-01T13:50:19;16.40;50.90
54832;DHT22;40730;53.068;6.572;2023-03-01T13:53:06;16.10;52.60
54832;DHT22;40730;53.068;6.572;2023-03-01T13:55:47;15.90;52.80
54832;DHT22;40730;53.068;6.572;2023-03-01T13:58:26;15.60;52.50
54832;DHT22;40730;53.068;6.572;2023-03-01T14:01:06;15.30;52.70
54832;DHT22;40730;53.068;6.572;2023-03-01T14:03:40;15.30;53.60
54832;DHT22;40730;53.068;6.572;2023-03-01T14:06:19;15.60;53.30
54832;DHT22;40730;53.068;6.572;2023-03-01T14:08:48;15.60;53.20
54832;DHT22;40730;53.068;6.572;2023-03-01T14:17:41;15.40;53.70
54832;DHT22;40730;53.068;6.572;2023-03-01T14:20:19;14.90;53.70
54832;DHT22;40730;53.068;6.572;2023-03-01T14:22:46;14.60;55.10
54832;DHT22;40730;53.068;6.572;2023-03-01T14:27:44;14.80;55.00
54832;DHT22;40730;53.068;6.572;2023-03-01T14:30:15;14.60;54.10
54832;DHT22;40730;53.068;6.572;2023-03-01T14:33:01;14.50;54.20
54832;DHT22;40730;53.068;6.572;2023-03-01T14:35:30;14.10;54.60
54832;DHT22;40730;53.068;6.572;2023-03-01T14:37:56;13.60;56.20
54832;DHT22;40730;53.068;6.572;2023-03-01T14:42:57;12.90;57.90
54832;DHT22;40730;53.068;6.572;2023-03-01T14:45:27;12.60;59.20
54832;DHT22;40730;53.068;6.572;2023-03-01T14:47:54;12.30;59.50
54832;DHT22;40730;53.068;6.572;2023-03-01T14:50:25;11.90;60.10
54832;DHT22;40730;53.068;6.572;2023-03-01T14:52:57;11.50;61.70
54832;DHT22;40730;53.068;6.572;2023-03-01T14:55:35;11.10;63.20
54832;DHT22;40730;53.068;6.572;2023-03-01T14:58:08;11.00;65.20
54832;DHT22;40730;53.068;6.572;2023-03-01T15:00:35;11.00;67.70
54832;DHT22;40730;53.068;6.572;2023-03-01T15:03:52;10.80;68.80
54832;DHT22;40730;53.068;6.572;2023-03-01T15:05:52;10.30;71.10
54832;DHT22;40730;53.068;6.572;2023-03-01T15:08:23;9.90;77.80
54832;DHT22;40730;53.068;6.572;2023-03-01T15:11:04;9.90;87.10
54832;DHT22;40730;53.068;6.572;2023-03-01T15:13:32;9.90;92.80
54832;DHT22;40730;53.068;6.572;2023-03-01T15:18:35;9.40;97.10
54832;DHT22;40730;53.068;6.572;2023-03-01T15:21:14;9.00;98.50
54832;DHT22;40730;53.068;6.572;2023-03-01T15:23:40;8.60;99.90
54832;DHT22;40730;53.068;6.572;2023-03-01T15:26:16;8.30;99.90
54832;DHT22;40730;53.068;6.572;2023-03-01T15:28:50;8.30;99.90
54832;DHT22;40730;53.068;6.572;2023-03-01T15:31:23;8.40;99.90
54832;DHT22;40730;53.068;6.572;2023-03-01T15:33:49;8.50;99.90
54832;DHT22;40730;53.068;6.572;2023-03-01T15:36:39;8.60;99.90
54832;DHT22;40730;53.068;6.572;2023-03-01T15:41:49;8.30;99.90
54832;DHT22;40730;53.068;6.572;2023-03-01T15:44:27;8.20;99.90
54832;DHT22;40730;53.068;6.572;2023-03-01T15:46:53;8.30;99.90
54832;DHT22;40730;53.068;6.572;2023-03-01T17:22:23;5.20;99.90
54832;DHT22;40730;53.068;6.572;2023-03-01T17:24:49;5.00;99.90
54832;DHT22;40730;53.068;6.572;2023-03-01T17:27:15;5.00;99.90
54832;DHT22;40730;53.068;6.572;2023-03-01T17:29:41;4.90;99.90
54832;DHT22;40730;53.068;6.572;2023-03-01T17:32:07;4.80;99.90
54832;DHT22;40730;53.068;6.572;2023-03-01T17:34:33;4.80;99.90
54832;DHT22;40730;53.068;6.572;2023-03-01T17:36:59;4.70;99.90
54832;DHT22;40730;53.068;6.572;2023-03-01T17:39:25;4.60;99.90
54832;DHT22;40730;53.068;6.572;2023-03-01T17:41:55;4.60;99.90
54832;DHT22;40730;53.068;6.572;2023-03-01T17:44:21;4.50;99.90
